Beasley, Texas
Current Conditions -  °F | °C
As of 3:34 PM on Saturday 22 Nov 2014 (Local Time) from KSGR Reporting Station
Moderate Rain Moderate Rain  
Wind Chill: 67°   Ceiling: 2800
Heat Index: 67°   Visibility: 3mi
Dew Point: 64°   Wind: 8mph
Humidity: 90%   Direction: 90°E
Pressure: 29.83"   Gusts: NA
Location:  29.5°N, 95.92°W
Report Text: KSGR 222134Z 09007KT 3SM RA BR FEW008 OVC028 19/18 A2983 RMK AO2 RAB04 P0001 T01940178
Loading
Personal Weather Stations






























Interactive Weather Map New forecast layout! Learn more

10-Day Weather Forecast

Advertisements
Track Severe Weather on mobile